sensor_id;sensor_type;location;lat;lon;timestamp;pressure;altitude;pressure_sealevel;temperature;humidity
21102;BME280;10709;49.006;12.100;2023-04-04T00:00:15;48616.75;;;-146.00;53.29
21102;BME280;10709;49.006;12.100;2023-04-04T00:02:41;48648.09;;;-146.00;53.64
21102;BME280;10709;49.006;12.100;2023-04-04T00:05:08;48634.38;;;-146.00;53.29
21102;BME280;10709;49.006;12.100;2023-04-04T00:07:34;48652.00;;;-146.00;53.12
21102;BME280;10709;49.006;12.100;2023-04-04T00:10:01;48648.09;;;-146.00;53.04
21102;BME280;10709;49.006;12.100;2023-04-04T00:12:28;48616.75;;;-146.00;52.63
21102;BME280;10709;49.006;12.100;2023-04-04T00:14:55;48632.41;;;-146.00;52.84
21102;BME280;10709;49.006;12.100;2023-04-04T00:17:22;48648.09;;;-146.00;52.49
21102;BME280;10709;49.006;12.100;2023-04-04T00:19:49;48657.88;;;-146.00;51.64
21102;BME280;10709;49.006;12.100;2023-04-04T00:22:15;48653.97;;;-146.00;52.38
21102;BME280;10709;49.006;12.100;2023-04-04T00:24:43;48636.34;;;-146.00;52.53
21102;BME280;10709;49.006;12.100;2023-04-04T00:27:10;48630.47;;;-146.00;51.89
21102;BME280;10709;49.006;12.100;2023-04-04T00:29:36;48640.25;;;-146.00;52.29
21102;BME280;10709;49.006;12.100;2023-04-04T00:32:03;48648.09;;;-146.00;51.43
21102;BME280;10709;49.006;12.100;2023-04-04T00:34:29;48636.34;;;-146.00;52.05
21102;BME280;10709;49.006;12.100;2023-04-04T00:36:56;48644.16;;;-146.00;51.79
21102;BME280;10709;49.006;12.100;2023-04-04T00:39:24;48628.50;;;-146.00;51.91
21102;BME280;10709;49.006;12.100;2023-04-04T00:41:51;48618.72;;;-146.00;52.17
21102;BME280;10709;49.006;12.100;2023-04-04T00:44:18;48636.34;;;-146.00;51.84
21102;BME280;10709;49.006;12.100;2023-04-04T00:46:45;48648.09;;;-146.00;51.56
21102;BME280;10709;49.006;12.100;2023-04-04T00:49:12;48646.13;;;-146.00;51.55
21102;BME280;10709;49.006;12.100;2023-04-04T00:51:38;48632.41;;;-146.00;51.68
21102;BME280;10709;49.006;12.100;2023-04-04T00:54:04;48628.50;;;-146.00;51.99
21102;BME280;10709;49.006;12.100;2023-04-04T00:56:31;48630.47;;;-146.00;51.62
21102;BME280;10709;49.006;12.100;2023-04-04T00:59:01;48628.50;;;-146.00;52.17
21102;BME280;10709;49.006;12.100;2023-04-04T01:01:28;48636.34;;;-146.00;52.78
21102;BME280;10709;49.006;12.100;2023-04-04T01:03:56;48628.50;;;-146.00;51.57
21102;BME280;10709;49.006;12.100;2023-04-04T01:06:23;48638.28;;;-146.00;51.84
21102;BME280;10709;49.006;12.100;2023-04-04T01:08:51;48648.09;;;-146.00;52.02
21102;BME280;10709;49.006;12.100;2023-04-04T01:11:18;48644.16;;;-146.00;52.32
21102;BME280;10709;49.006;12.100;2023-04-04T01:13:46;48640.25;;;-146.00;52.41
21102;BME280;10709;49.006;12.100;2023-04-04T01:16:13;48659.84;;;-146.00;53.30
21102;BME280;10709;49.006;12.100;2023-04-04T01:18:40;48644.16;;;-146.00;53.28
21102;BME280;10709;49.006;12.100;2023-04-04T01:21:12;48628.50;;;-146.00;53.01
21102;BME280;10709;49.006;12.100;2023-04-04T01:26:21;48626.53;;;-146.00;52.58
21102;BME280;10709;49.006;12.100;2023-04-04T01:28:48;48632.41;;;-146.00;53.11
21102;BME280;10709;49.006;12.100;2023-04-04T01:31:20;48640.25;;;-146.00;53.26
21102;BME280;10709;49.006;12.100;2023-04-04T01:34:04;48640.25;;;-146.00;52.73
21102;BME280;10709;49.006;12.100;2023-04-04T01:41:47;48628.50;;;-146.00;51.77
21102;BME280;10709;49.006;12.100;2023-04-04T01:44:16;48640.25;;;-146.00;52.80
21102;BME280;10709;49.006;12.100;2023-04-04T01:46:44;48634.38;;;-146.00;53.42
21102;BME280;10709;49.006;12.100;2023-04-04T01:49:10;48628.50;;;-146.00;53.18
21102;BME280;10709;49.006;12.100;2023-04-04T01:51:37;48620.66;;;-146.00;53.67
21102;BME280;10709;49.006;12.100;2023-04-04T01:54:04;48628.50;;;-146.00;53.94
21102;BME280;10709;49.006;12.100;2023-04-04T01:56:31;48655.94;;;-146.00;54.23
21102;BME280;10709;49.006;12.100;2023-04-04T01:58:58;48640.25;;;-146.00;53.88
21102;BME280;10709;49.006;12.100;2023-04-04T02:01:24;48628.50;;;-146.00;53.31
21102;BME280;10709;49.006;12.100;2023-04-04T02:03:51;48632.41;;;-146.00;53.42
21102;BME280;10709;49.006;12.100;2023-04-04T02:06:18;48642.22;;;-146.00;53.84
21102;BME280;10709;49.006;12.100;2023-04-04T02:08:44;48636.34;;;-146.00;53.20
21102;BME280;10709;49.006;12.100;2023-04-04T02:11:11;48632.41;;;-146.00;53.51
21102;BME280;10709;49.006;12.100;2023-04-04T02:13:37;48628.50;;;-146.00;53.69
21102;BME280;10709;49.006;12.100;2023-04-04T02:16:06;48632.41;;;-146.00;54.71
21102;BME280;10709;49.006;12.100;2023-04-04T02:18:33;48638.28;;;-146.00;54.39
21102;BME280;10709;49.006;12.100;2023-04-04T02:20:59;48620.66;;;-146.00;54.72
21102;BME280;10709;49.006;12.100;2023-04-04T02:23:25;48632.41;;;-146.00;54.57
21102;BME280;10709;49.006;12.100;2023-04-04T02:25:52;48632.41;;;-146.00;54.74
21102;BME280;10709;49.006;12.100;2023-04-04T02:28:18;48632.41;;;-146.00;54.88
21102;BME280;10709;49.006;12.100;2023-04-04T02:30:45;48648.09;;;-146.00;55.10
21102;BME280;10709;49.006;12.100;2023-04-04T02:33:12;48644.16;;;-146.00;54.28
21102;BME280;10709;49.006;12.100;2023-04-04T02:35:57;48628.50;;;-146.00;54.84
21102;BME280;10709;49.006;12.100;2023-04-04T02:38:24;48620.66;;;-146.00;54.61
21102;BME280;10709;49.006;12.100;2023-04-04T02:40:52;48620.66;;;-146.00;54.85
21102;BME280;10709;49.006;12.100;2023-04-04T02:43:18;48636.34;;;-146.00;54.69
21102;BME280;10709;49.006;12.100;2023-04-04T02:45:48;48632.41;;;-146.00;54.74
21102;BME280;10709;49.006;12.100;2023-04-04T02:48:15;48636.34;;;-146.00;54.76
21102;BME280;10709;49.006;12.100;2023-04-04T02:50:41;48650.06;;;-146.00;54.96
21102;BME280;10709;49.006;12.100;2023-04-04T02:53:08;48612.84;;;-146.00;54.83
21102;BME280;10709;49.006;12.100;2023-04-04T02:55:34;48632.41;;;-146.00;55.51
21102;BME280;10709;49.006;12.100;2023-04-04T02:58:01;48605.00;;;-146.00;55.46
21102;BME280;10709;49.006;12.100;2023-04-04T03:00:28;48644.16;;;-146.00;56.11
21102;BME280;10709;49.006;12.100;2023-04-04T03:02:55;48605.00;;;-146.00;55.34
21102;BME280;10709;49.006;12.100;2023-04-04T03:05:23;48616.75;;;-146.00;56.04
21102;BME280;10709;49.006;12.100;2023-04-04T03:07:54;48612.84;;;-146.00;55.71
21102;BME280;10709;49.006;12.100;2023-04-04T03:10:24;48614.78;;;-146.00;56.18
21102;BME280;10709;49.006;12.100;2023-04-04T03:12:52;48620.66;;;-146.00;56.01
21102;BME280;10709;49.006;12.100;2023-04-04T03:15:19;48640.25;;;-146.00;55.63
21102;BME280;10709;49.006;12.100;2023-04-04T03:17:45;48632.41;;;-146.00;55.95
21102;BME280;10709;49.006;12.100;2023-04-04T03:20:12;48620.66;;;-146.00;55.84
21102;BME280;10709;49.006;12.100;2023-04-04T03:22:40;48644.16;;;-146.00;56.25
21102;BME280;10709;49.006;12.100;2023-04-04T03:25:07;48612.84;;;-146.00;56.72
21102;BME280;10709;49.006;12.100;2023-04-04T03:27:34;48632.41;;;-146.00;57.13
21102;BME280;10709;49.006;12.100;2023-04-04T03:30:02;48620.66;;;-146.00;56.65
21102;BME280;10709;49.006;12.100;2023-04-04T03:32:29;48605.00;;;-146.00;56.49
21102;BME280;10709;49.006;12.100;2023-04-04T03:34:56;48659.84;;;-146.00;57.10
21102;BME280;10709;49.006;12.100;2023-04-04T03:37:23;48603.03;;;-146.00;56.74
21102;BME280;10709;49.006;12.100;2023-04-04T03:39:50;48624.59;;;-146.00;56.71
21102;BME280;10709;49.006;12.100;2023-04-04T03:42:16;48628.50;;;-146.00;56.99
21102;BME280;10709;49.006;12.100;2023-04-04T03:44:42;48636.34;;;-146.00;57.57
21102;BME280;10709;49.006;12.100;2023-04-04T03:47:09;48640.25;;;-146.00;57.08
21102;BME280;10709;49.006;12.100;2023-04-04T03:49:35;48640.25;;;-146.00;57.31
21102;BME280;10709;49.006;12.100;2023-04-04T03:52:02;48642.22;;;-146.00;57.40
21102;BME280;10709;49.006;12.100;2023-04-04T03:54:28;48628.50;;;-146.00;57.55
21102;BME280;10709;49.006;12.100;2023-04-04T03:56:56;48612.84;;;-146.00;57.19
21102;BME280;10709;49.006;12.100;2023-04-04T03:59:22;48620.66;;;-146.00;57.06
21102;BME280;10709;49.006;12.100;2023-04-04T04:01:49;48616.75;;;-146.00;57.75
21102;BME280;10709;49.006;12.100;2023-04-04T04:04:16;48616.75;;;-146.00;57.75
21102;BME280;10709;49.006;12.100;2023-04-04T04:06:43;48648.09;;;-146.00;57.80
21102;BME280;10709;49.006;12.100;2023-04-04T04:09:09;48630.47;;;-146.00;57.90
21102;BME280;10709;49.006;12.100;2023-04-04T04:11:37;48616.75;;;-146.00;57.81
21102;BME280;10709;49.006;12.100;2023-04-04T04:14:03;48624.59;;;-146.00;57.62
21102;BME280;10709;49.006;12.100;2023-04-04T04:16:30;48620.66;;;-146.00;57.58
21102;BME280;10709;49.006;12.100;2023-04-04T04:18:58;48616.75;;;-146.00;57.69
21102;BME280;10709;49.006;12.100;2023-04-04T04:21:24;48616.75;;;-146.00;57.49
21102;BME280;10709;49.006;12.100;2023-04-04T04:23:51;48632.41;;;-146.00;58.62
21102;BME280;10709;49.006;12.100;2023-04-04T04:26:17;48626.53;;;-146.00;58.97
21102;BME280;10709;49.006;12.100;2023-04-04T04:28:44;48644.16;;;-146.00;58.34
21102;BME280;10709;49.006;12.100;2023-04-04T04:31:11;48628.50;;;-146.00;58.48
21102;BME280;10709;49.006;12.100;2023-04-04T04:33:37;48630.47;;;-146.00;58.32
21102;BME280;10709;49.006;12.100;2023-04-04T04:36:04;48630.47;;;-146.00;58.12
21102;BME280;10709;49.006;12.100;2023-04-04T04:38:32;48616.75;;;-146.00;58.02
21102;BME280;10709;49.006;12.100;2023-04-04T04:40:59;48640.25;;;-146.00;58.29
21102;BME280;10709;49.006;12.100;2023-04-04T04:43:25;48630.47;;;-146.00;58.09
21102;BME280;10709;49.006;12.100;2023-04-04T04:45:52;48620.66;;;-146.00;57.90
21102;BME280;10709;49.006;12.100;2023-04-04T04:48:19;48624.59;;;-146.00;58.37
21102;BME280;10709;49.006;12.100;2023-04-04T04:50:46;48605.00;;;-146.00;57.69
21102;BME280;10709;49.006;12.100;2023-04-04T04:53:13;48612.84;;;-146.00;58.12
21102;BME280;10709;49.006;12.100;2023-04-04T04:55:39;48612.84;;;-146.00;58.10
21102;BME280;10709;49.006;12.100;2023-04-04T04:58:08;48616.75;;;-146.00;58.46
21102;BME280;10709;49.006;12.100;2023-04-04T05:00:36;48630.47;;;-146.00;58.23
21102;BME280;10709;49.006;12.100;2023-04-04T05:03:04;48636.34;;;-146.00;58.62
21102;BME280;10709;49.006;12.100;2023-04-04T05:05:33;48628.50;;;-146.00;58.64
21102;BME280;10709;49.006;12.100;2023-04-04T05:08:00;48610.88;;;-146.00;59.09
21102;BME280;10709;49.006;12.100;2023-04-04T05:10:28;48612.84;;;-146.00;59.08
21102;BME280;10709;49.006;12.100;2023-04-04T05:12:55;48620.66;;;-146.00;59.46
21102;BME280;10709;49.006;12.100;2023-04-04T05:15:22;48640.25;;;-146.00;59.15
21102;BME280;10709;49.006;12.100;2023-04-04T05:17:48;48628.50;;;-146.00;59.54
21102;BME280;10709;49.006;12.100;2023-04-04T05:20:15;48620.66;;;-146.00;59.97
21102;BME280;10709;49.006;12.100;2023-04-04T05:22:42;48628.50;;;-146.00;59.52
21102;BME280;10709;49.006;12.100;2023-04-04T05:25:10;48618.72;;;-146.00;59.63
21102;BME280;10709;49.006;12.100;2023-04-04T05:27:38;48628.50;;;-146.00;59.60
21102;BME280;10709;49.006;12.100;2023-04-04T05:30:06;48646.13;;;-146.00;59.78
21102;BME280;10709;49.006;12.100;2023-04-04T05:32:35;48620.66;;;-146.00;59.51
21102;BME280;10709;49.006;12.100;2023-04-04T05:35:01;48610.88;;;-146.00;59.24
21102;BME280;10709;49.006;12.100;2023-04-04T05:37:28;48665.72;;;-146.00;58.78
21102;BME280;10709;49.006;12.100;2023-04-04T05:39:54;48624.59;;;-146.00;58.62
21102;BME280;10709;49.006;12.100;2023-04-04T05:42:21;48632.41;;;-146.00;58.62
21102;BME280;10709;49.006;12.100;2023-04-04T05:44:48;48610.88;;;-146.00;58.62
21102;BME280;10709;49.006;12.100;2023-04-04T05:47:14;48628.50;;;-146.00;58.44
21102;BME280;10709;49.006;12.100;2023-04-04T05:49:41;48612.84;;;-146.00;56.30
21102;BME280;10709;49.006;12.100;2023-04-04T05:52:07;48636.34;;;-146.00;57.80
21102;BME280;10709;49.006;12.100;2023-04-04T05:54:36;48614.78;;;-146.00;55.83
21102;BME280;10709;49.006;12.100;2023-04-04T05:57:02;48620.66;;;-146.00;57.53
21102;BME280;10709;49.006;12.100;2023-04-04T05:59:29;48640.25;;;-146.00;57.81
21102;BME280;10709;49.006;12.100;2023-04-04T06:01:55;48644.16;;;-146.00;57.76
21102;BME280;10709;49.006;12.100;2023-04-04T06:04:22;48632.41;;;-146.00;57.11
21102;BME280;10709;49.006;12.100;2023-04-04T06:06:49;48634.38;;;-146.00;55.67
21102;BME280;10709;49.006;12.100;2023-04-04T06:09:16;48599.13;;;-146.00;55.64
21102;BME280;10709;49.006;12.100;2023-04-04T06:11:42;48605.00;;;-146.00;55.80
21102;BME280;10709;49.006;12.100;2023-04-04T06:14:09;48608.91;;;-146.00;55.46
21102;BME280;10709;49.006;12.100;2023-04-04T06:16:36;48620.66;;;-146.00;54.72
21102;BME280;10709;49.006;12.100;2023-04-04T06:19:03;48589.31;;;-146.00;55.86
21102;BME280;10709;49.006;12.100;2023-04-04T06:21:29;48632.41;;;-146.00;54.81
21102;BME280;10709;49.006;12.100;2023-04-04T06:23:56;48636.34;;;-146.00;54.55
21102;BME280;10709;49.006;12.100;2023-04-04T06:26:22;48608.91;;;-146.00;54.14
21102;BME280;10709;49.006;12.100;2023-04-04T06:28:49;48597.16;;;-146.00;54.88
21102;BME280;10709;49.006;12.100;2023-04-04T06:31:16;48612.84;;;-146.00;54.93
21102;BME280;10709;49.006;12.100;2023-04-04T06:33:43;48640.25;;;-146.00;55.40
21102;BME280;10709;49.006;12.100;2023-04-04T06:36:09;48599.13;;;-146.00;53.54
21102;BME280;10709;49.006;12.100;2023-04-04T06:38:36;48608.91;;;-146.00;53.60
21102;BME280;10709;49.006;12.100;2023-04-04T06:41:02;48616.75;;;-146.00;54.31
21102;BME280;10709;49.006;12.100;2023-04-04T06:43:29;48636.34;;;-146.00;54.87
21102;BME280;10709;49.006;12.100;2023-04-04T06:45:56;48593.25;;;-146.00;52.96
21102;BME280;10709;49.006;12.100;2023-04-04T06:48:23;48616.75;;;-146.00;53.87
21102;BME280;10709;49.006;12.100;2023-04-04T06:50:49;48616.75;;;-146.00;52.49
21102;BME280;10709;49.006;12.100;2023-04-04T06:53:16;48616.75;;;-146.00;52.68
21102;BME280;10709;49.006;12.100;2023-04-04T06:55:43;48620.66;;;-146.00;51.11
21102;BME280;10709;49.006;12.100;2023-04-04T06:58:09;48616.75;;;-146.00;51.89
21102;BME280;10709;49.006;12.100;2023-04-04T07:00:35;48642.22;;;-146.00;51.65
21102;BME280;10709;49.006;12.100;2023-04-04T07:03:03;48646.13;;;-146.00;51.12
21102;BME280;10709;49.006;12.100;2023-04-04T07:05:29;48636.34;;;-146.00;49.34
21102;BME280;10709;49.006;12.100;2023-04-04T07:07:57;48624.59;;;-146.00;48.98
21102;BME280;10709;49.006;12.100;2023-04-04T07:10:24;48644.16;;;-146.00;47.42
21102;BME280;10709;49.006;12.100;2023-04-04T07:12:50;48648.09;;;-146.00;47.57
21102;BME280;10709;49.006;12.100;2023-04-04T07:15:17;48636.34;;;-146.00;46.89
21102;BME280;10709;49.006;12.100;2023-04-04T07:17:43;48636.34;;;-146.00;46.65
21102;BME280;10709;49.006;12.100;2023-04-04T07:20:10;48620.66;;;-146.00;48.08
21102;BME280;10709;49.006;12.100;2023-04-04T07:22:37;48640.25;;;-146.00;49.74
21102;BME280;10709;49.006;12.100;2023-04-04T07:25:07;48616.75;;;-146.00;49.24
21102;BME280;10709;49.006;12.100;2023-04-04T07:27:35;48608.91;;;-146.00;47.56
21102;BME280;10709;49.006;12.100;2023-04-04T07:30:03;48624.59;;;-146.00;47.31
21102;BME280;10709;49.006;12.100;2023-04-04T07:32:29;48618.72;;;-146.00;45.83
21102;BME280;10709;49.006;12.100;2023-04-04T07:34:56;48601.06;;;-146.00;44.44
21102;BME280;10709;49.006;12.100;2023-04-04T07:37:23;48638.28;;;-146.00;45.14
21102;BME280;10709;49.006;12.100;2023-04-04T07:39:51;48626.53;;;-146.00;45.10
21102;BME280;10709;49.006;12.100;2023-04-04T07:42:18;48644.16;;;-146.00;44.92
21102;BME280;10709;49.006;12.100;2023-04-04T07:44:49;48620.66;;;-146.00;45.30
21102;BME280;10709;49.006;12.100;2023-04-04T07:47:16;48626.53;;;-146.00;45.38
21102;BME280;10709;49.006;12.100;2023-04-04T07:49:43;48620.66;;;-146.00;44.34
21102;BME280;10709;49.006;12.100;2023-04-04T07:52:10;48640.25;;;-146.00;45.79
21102;BME280;10709;49.006;12.100;2023-04-04T07:54:36;48628.50;;;-146.00;45.76
21102;BME280;10709;49.006;12.100;2023-04-04T07:57:02;48648.09;;;-146.00;45.62
21102;BME280;10709;49.006;12.100;2023-04-04T07:59:31;48648.09;;;-146.00;45.80
21102;BME280;10709;49.006;12.100;2023-04-04T08:01:58;48603.03;;;-146.00;45.49
21102;BME280;10709;49.006;12.100;2023-04-04T08:04:24;48640.25;;;-146.00;44.37
21102;BME280;10709;49.006;12.100;2023-04-04T08:06:51;48620.66;;;-146.00;44.38
21102;BME280;10709;49.006;12.100;2023-04-04T08:09:18;48636.34;;;-146.00;44.60
21102;BME280;10709;49.006;12.100;2023-04-04T08:11:44;48624.59;;;-146.00;45.48
21102;BME280;10709;49.006;12.100;2023-04-04T08:14:11;48608.91;;;-146.00;45.16
21102;BME280;10709;49.006;12.100;2023-04-04T08:16:38;48634.38;;;-146.00;44.81
21102;BME280;10709;49.006;12.100;2023-04-04T08:19:05;48620.66;;;-146.00;45.10
21102;BME280;10709;49.006;12.100;2023-04-04T08:21:33;48616.75;;;-146.00;46.97
21102;BME280;10709;49.006;12.100;2023-04-04T08:23:59;48632.41;;;-146.00;48.00
21102;BME280;10709;49.006;12.100;2023-04-04T08:26:25;48644.16;;;-146.00;48.66
21102;BME280;10709;49.006;12.100;2023-04-04T08:28:52;48618.72;;;-146.00;48.80
21102;BME280;10709;49.006;12.100;2023-04-04T08:31:19;48605.00;;;-146.00;48.93
21102;BME280;10709;49.006;12.100;2023-04-04T08:33:45;48642.22;;;-146.00;49.20
21102;BME280;10709;49.006;12.100;2023-04-04T08:36:13;48634.38;;;-146.00;49.42
21102;BME280;10709;49.006;12.100;2023-04-04T08:38:40;48612.84;;;-146.00;50.25
21102;BME280;10709;49.006;12.100;2023-04-04T08:41:06;48653.97;;;-146.00;50.43
21102;BME280;10709;49.006;12.100;2023-04-04T08:43:33;48616.75;;;-146.00;50.06
21102;BME280;10709;49.006;12.100;2023-04-04T08:46:04;48606.94;;;-146.00;47.64
21102;BME280;10709;49.006;12.100;2023-04-04T08:48:32;48612.84;;;-146.00;47.04
21102;BME280;10709;49.006;12.100;2023-04-04T08:50:59;48616.75;;;-146.00;46.28
21102;BME280;10709;49.006;12.100;2023-04-04T08:53:26;48616.75;;;-146.00;45.90
21102;BME280;10709;49.006;12.100;2023-04-04T08:55:55;48624.59;;;-146.00;46.66
21102;BME280;10709;49.006;12.100;2023-04-04T08:58:25;48616.75;;;-146.00;46.01
21102;BME280;10709;49.006;12.100;2023-04-04T09:00:53;48608.91;;;-146.00;46.17
21102;BME280;10709;49.006;12.100;2023-04-04T09:03:24;48632.41;;;-146.00;46.07
21102;BME280;10709;49.006;12.100;2023-04-04T09:05:53;48628.50;;;-146.00;46.25
21102;BME280;10709;49.006;12.100;2023-04-04T09:08:21;48655.94;;;-146.00;46.71
21102;BME280;10709;49.006;12.100;2023-04-04T09:10:50;48626.53;;;-146.00;46.46
21102;BME280;10709;49.006;12.100;2023-04-04T09:13:17;48640.25;;;-146.00;46.68
21102;BME280;10709;49.006;12.100;2023-04-04T09:15:49;48618.72;;;-146.00;46.38
21102;BME280;10709;49.006;12.100;2023-04-04T09:18:16;48640.25;;;-146.00;46.38
21102;BME280;10709;49.006;12.100;2023-04-04T09:20:46;48628.50;;;-146.00;46.27
21102;BME280;10709;49.006;12.100;2023-04-04T09:23:18;48605.00;;;-146.00;46.02
21102;BME280;10709;49.006;12.100;2023-04-04T09:25:51;48624.59;;;-146.00;45.99
21102;BME280;10709;49.006;12.100;2023-04-04T09:28:21;48640.25;;;-146.00;46.20
21102;BME280;10709;49.006;12.100;2023-04-04T09:30:49;48632.41;;;-146.00;46.78
21102;BME280;10709;49.006;12.100;2023-04-04T09:33:17;48612.84;;;-146.00;46.86
21102;BME280;10709;49.006;12.100;2023-04-04T09:35:49;48608.91;;;-146.00;46.33
21102;BME280;10709;49.006;12.100;2023-04-04T09:38:22;48626.53;;;-146.00;45.57
21102;BME280;10709;49.006;12.100;2023-04-04T09:40:49;48636.34;;;-146.00;46.71
21102;BME280;10709;49.006;12.100;2023-04-04T09:43:18;48618.72;;;-146.00;46.64
21102;BME280;10709;49.006;12.100;2023-04-04T09:45:47;48620.66;;;-146.00;46.05
21102;BME280;10709;49.006;12.100;2023-04-04T09:48:31;48650.06;;;-146.00;44.82
21102;BME280;10709;49.006;12.100;2023-04-04T09:50:58;48628.50;;;-146.00;45.16
21102;BME280;10709;49.006;12.100;2023-04-04T09:53:25;48632.41;;;-146.00;45.96
21102;BME280;10709;49.006;12.100;2023-04-04T09:55:55;48628.50;;;-146.00;45.34
21102;BME280;10709;49.006;12.100;2023-04-04T09:58:26;48620.66;;;-146.00;43.92
21102;BME280;10709;49.006;12.100;2023-04-04T10:00:57;48628.50;;;-146.00;45.06
21102;BME280;10709;49.006;12.100;2023-04-04T10:03:25;48614.78;;;-146.00;45.53
21102;BME280;10709;49.006;12.100;2023-04-04T10:08:27;48638.28;;;-146.00;44.52
21102;BME280;10709;49.006;12.100;2023-04-04T10:11:02;48632.41;;;-146.00;45.24
21102;BME280;10709;49.006;12.100;2023-04-04T10:13:38;48644.16;;;-146.00;44.51
21102;BME280;10709;49.006;12.100;2023-04-04T10:16:08;48608.91;;;-146.00;44.42
21102;BME280;10709;49.006;12.100;2023-04-04T10:18:36;48628.50;;;-146.00;44.41
21102;BME280;10709;49.006;12.100;2023-04-04T10:21:06;48632.41;;;-146.00;44.97
21102;BME280;10709;49.006;12.100;2023-04-04T10:23:42;48624.59;;;-146.00;43.95
21102;BME280;10709;49.006;12.100;2023-04-04T10:26:11;48618.72;;;-146.00;45.24
21102;BME280;10709;49.006;12.100;2023-04-04T10:28:38;48620.66;;;-146.00;45.03
21102;BME280;10709;49.006;12.100;2023-04-04T10:31:19;48640.25;;;-146.00;43.67
21102;BME280;10709;49.006;12.100;2023-04-04T10:36:24;48620.66;;;-146.00;43.47
21102;BME280;10709;49.006;12.100;2023-04-04T10:39:13;48620.66;;;-146.00;43.83
21102;BME280;10709;49.006;12.100;2023-04-04T10:41:40;48650.06;;;-146.00;43.87
21102;BME280;10709;49.006;12.100;2023-04-04T10:44:28;48620.66;;;-146.00;42.97
21102;BME280;10709;49.006;12.100;2023-04-04T10:46:56;48640.25;;;-146.00;43.29
21102;BME280;10709;49.006;12.100;2023-04-04T10:49:25;48655.94;;;-146.00;43.44
21102;BME280;10709;49.006;12.100;2023-04-04T10:51:53;48620.66;;;-146.00;43.82
21102;BME280;10709;49.006;12.100;2023-04-04T10:54:24;48620.66;;;-146.00;43.54
21102;BME280;10709;49.006;12.100;2023-04-04T10:56:53;48636.34;;;-146.00;43.56
21102;BME280;10709;49.006;12.100;2023-04-04T10:59:20;48632.41;;;-146.00;44.07
21102;BME280;10709;49.006;12.100;2023-04-04T11:01:58;48636.34;;;-146.00;43.50
21102;BME280;10709;49.006;12.100;2023-04-04T11:07:17;48644.16;;;-146.00;43.65
21102;BME280;10709;49.006;12.100;2023-04-04T11:09:55;48636.34;;;-146.00;43.15
21102;BME280;10709;49.006;12.100;2023-04-04T11:12:25;48636.34;;;-146.00;43.67
21102;BME280;10709;49.006;12.100;2023-04-04T11:20:19;48618.72;;;-146.00;44.63
21102;BME280;10709;49.006;12.100;2023-04-04T11:23:37;48628.50;;;-146.00;43.53
21102;BME280;10709;49.006;12.100;2023-04-04T11:25:56;48632.41;;;-146.00;42.65
21102;BME280;10709;49.006;12.100;2023-04-04T11:34:08;48608.91;;;-146.00;42.82
21102;BME280;10709;49.006;12.100;2023-04-04T11:39:21;48652.00;;;-146.00;42.21
21102;BME280;10709;49.006;12.100;2023-04-04T11:41:48;48640.25;;;-146.00;42.25
21102;BME280;10709;49.006;12.100;2023-04-04T11:44:19;48636.34;;;-146.00;42.70
21102;BME280;10709;49.006;12.100;2023-04-04T11:46:47;48628.50;;;-146.00;43.17
21102;BME280;10709;49.006;12.100;2023-04-04T11:49:16;48620.66;;;-146.00;43.45
21102;BME280;10709;49.006;12.100;2023-04-04T11:51:44;48618.72;;;-146.00;43.80
21102;BME280;10709;49.006;12.100;2023-04-04T11:54:15;48628.50;;;-146.00;44.18
21102;BME280;10709;49.006;12.100;2023-04-04T11:56:42;48612.84;;;-146.00;43.80
21102;BME280;10709;49.006;12.100;2023-04-04T11:59:17;48630.47;;;-146.00;43.38
21102;BME280;10709;49.006;12.100;2023-04-04T12:01:44;48628.50;;;-146.00;43.46
21102;BME280;10709;49.006;12.100;2023-04-04T12:04:11;48638.28;;;-146.00;43.65
21102;BME280;10709;49.006;12.100;2023-04-04T12:06:41;48644.16;;;-146.00;43.96
21102;BME280;10709;49.006;12.100;2023-04-04T12:09:10;48628.50;;;-146.00;43.72
21102;BME280;10709;49.006;12.100;2023-04-04T12:11:38;48640.25;;;-146.00;43.33
21102;BME280;10709;49.006;12.100;2023-04-04T12:14:05;48616.75;;;-146.00;43.65
21102;BME280;10709;49.006;12.100;2023-04-04T12:16:34;48655.94;;;-146.00;44.19
21102;BME280;10709;49.006;12.100;2023-04-04T12:19:01;48652.00;;;-146.00;43.88
21102;BME280;10709;49.006;12.100;2023-04-04T12:21:30;48648.09;;;-146.00;44.23
21102;BME280;10709;49.006;12.100;2023-04-04T12:23:57;48599.13;;;-146.00;43.88
21102;BME280;10709;49.006;12.100;2023-04-04T12:26:24;48640.25;;;-146.00;42.97
21102;BME280;10709;49.006;12.100;2023-04-04T12:28:55;48659.84;;;-146.00;43.32
21102;BME280;10709;49.006;12.100;2023-04-04T12:31:24;48648.09;;;-146.00;42.18
21102;BME280;10709;49.006;12.100;2023-04-04T12:33:52;48614.78;;;-146.00;41.23
21102;BME280;10709;49.006;12.100;2023-04-04T12:36:19;48640.25;;;-146.00;41.78
21102;BME280;10709;49.006;12.100;2023-04-04T12:39:04;48624.59;;;-146.00;40.95
21102;BME280;10709;49.006;12.100;2023-04-04T12:41:32;48648.09;;;-146.00;40.76
21102;BME280;10709;49.006;12.100;2023-04-04T12:44:00;48620.66;;;-146.00;40.71
21102;BME280;10709;49.006;12.100;2023-04-04T12:46:34;48618.72;;;-146.00;40.53
21102;BME280;10709;49.006;12.100;2023-04-04T12:49:02;48620.66;;;-146.00;40.91
21102;BME280;10709;49.006;12.100;2023-04-04T12:51:30;48612.84;;;-146.00;41.73
21102;BME280;10709;49.006;12.100;2023-04-04T12:53:58;48644.16;;;-146.00;41.94
21102;BME280;10709;49.006;12.100;2023-04-04T12:56:26;48659.84;;;-146.00;40.28
21102;BME280;10709;49.006;12.100;2023-04-04T12:59:00;48638.28;;;-146.00;39.27
21102;BME280;10709;49.006;12.100;2023-04-04T13:01:32;48648.09;;;-146.00;39.97
21102;BME280;10709;49.006;12.100;2023-04-04T13:04:00;48661.81;;;-146.00;40.27